sensor_id;sensor_type;location;lat;lon;timestamp;P1;durP1;ratioP1;P2;durP2;ratioP2
12852;SDS011;6495;51.808;7.478;2023-05-10T00:01:49;2.40;;;1.90;;
12852;SDS011;6495;51.808;7.478;2023-05-10T00:04:18;1.90;;;1.70;;
12852;SDS011;6495;51.808;7.478;2023-05-10T00:06:47;2.03;;;1.83;;
12852;SDS011;6495;51.808;7.478;2023-05-10T00:09:16;2.22;;;1.75;;
12852;SDS011;6495;51.808;7.478;2023-05-10T00:11:44;3.80;;;2.17;;
12852;SDS011;6495;51.808;7.478;2023-05-10T00:14:12;2.53;;;2.13;;
12852;SDS011;6495;51.808;7.478;2023-05-10T00:16:40;2.30;;;2.00;;
12852;SDS011;6495;51.808;7.478;2023-05-10T00:19:09;3.65;;;2.35;;
12852;SDS011;6495;51.808;7.478;2023-05-10T00:21:37;3.03;;;2.40;;
12852;SDS011;6495;51.808;7.478;2023-05-10T00:24:05;3.45;;;2.53;;
12852;SDS011;6495;51.808;7.478;2023-05-10T00:26:35;2.50;;;2.28;;
12852;SDS011;6495;51.808;7.478;2023-05-10T00:29:03;4.03;;;2.47;;
12852;SDS011;6495;51.808;7.478;2023-05-10T00:31:31;4.35;;;2.55;;
12852;SDS011;6495;51.808;7.478;2023-05-10T00:33:59;3.40;;;2.45;;
12852;SDS011;6495;51.808;7.478;2023-05-10T00:36:28;3.92;;;2.50;;
12852;SDS011;6495;51.808;7.478;2023-05-10T00:38:57;2.97;;;2.42;;
12852;SDS011;6495;51.808;7.478;2023-05-10T00:41:25;2.83;;;2.17;;
12852;SDS011;6495;51.808;7.478;2023-05-10T00:43:55;3.38;;;2.70;;
12852;SDS011;6495;51.808;7.478;2023-05-10T00:46:23;3.42;;;2.50;;
12852;SDS011;6495;51.808;7.478;2023-05-10T00:48:52;3.03;;;1.90;;
12852;SDS011;6495;51.808;7.478;2023-05-10T00:51:20;3.10;;;2.08;;
12852;SDS011;6495;51.808;7.478;2023-05-10T00:53:50;3.33;;;2.17;;
12852;SDS011;6495;51.808;7.478;2023-05-10T00:56:18;3.42;;;1.50;;
12852;SDS011;6495;51.808;7.478;2023-05-10T00:58:49;1.77;;;1.30;;
12852;SDS011;6495;51.808;7.478;2023-05-10T01:01:19;1.15;;;1.00;;
12852;SDS011;6495;51.808;7.478;2023-05-10T01:03:47;1.35;;;1.15;;
12852;SDS011;6495;51.808;7.478;2023-05-10T01:06:16;1.33;;;1.23;;
12852;SDS011;6495;51.808;7.478;2023-05-10T01:08:44;1.85;;;1.35;;
12852;SDS011;6495;51.808;7.478;2023-05-10T01:11:12;1.20;;;1.00;;
12852;SDS011;6495;51.808;7.478;2023-05-10T01:13:42;1.88;;;1.50;;
12852;SDS011;6495;51.808;7.478;2023-05-10T01:16:18;3.13;;;1.73;;
12852;SDS011;6495;51.808;7.478;2023-05-10T01:18:47;2.10;;;1.30;;
12852;SDS011;6495;51.808;7.478;2023-05-10T01:21:18;2.53;;;1.98;;
12852;SDS011;6495;51.808;7.478;2023-05-10T01:24:07;2.35;;;1.63;;
12852;SDS011;6495;51.808;7.478;2023-05-10T01:30:01;2.53;;;1.85;;
12852;SDS011;6495;51.808;7.478;2023-05-10T01:33:05;4.45;;;2.40;;
12852;SDS011;6495;51.808;7.478;2023-05-10T01:35:46;2.65;;;1.98;;
12852;SDS011;6495;51.808;7.478;2023-05-10T01:38:24;2.33;;;1.77;;
12852;SDS011;6495;51.808;7.478;2023-05-10T01:41:06;1.85;;;1.42;;
12852;SDS011;6495;51.808;7.478;2023-05-10T01:43:48;1.65;;;0.98;;
12852;SDS011;6495;51.808;7.478;2023-05-10T01:46:26;1.23;;;1.00;;
12852;SDS011;6495;51.808;7.478;2023-05-10T01:49:06;0.98;;;0.90;;
12852;SDS011;6495;51.808;7.478;2023-05-10T01:51:39;1.38;;;1.05;;
12852;SDS011;6495;51.808;7.478;2023-05-10T01:54:14;1.42;;;1.00;;
12852;SDS011;6495;51.808;7.478;2023-05-10T01:56:47;1.13;;;1.02;;
12852;SDS011;6495;51.808;7.478;2023-05-10T01:59:23;0.68;;;0.68;;
12852;SDS011;6495;51.808;7.478;2023-05-10T02:01:58;1.58;;;1.00;;
12852;SDS011;6495;51.808;7.478;2023-05-10T02:04:30;1.35;;;0.95;;
12852;SDS011;6495;51.808;7.478;2023-05-10T02:07:04;0.93;;;0.88;;
12852;SDS011;6495;51.808;7.478;2023-05-10T02:09:34;1.75;;;1.17;;
12852;SDS011;6495;51.808;7.478;2023-05-10T02:12:04;1.70;;;1.20;;
12852;SDS011;6495;51.808;7.478;2023-05-10T02:14:35;1.90;;;1.17;;
12852;SDS011;6495;51.808;7.478;2023-05-10T02:17:04;1.17;;;0.77;;
12852;SDS011;6495;51.808;7.478;2023-05-10T02:19:38;2.67;;;1.08;;
12852;SDS011;6495;51.808;7.478;2023-05-10T02:22:09;1.20;;;1.08;;
12852;SDS011;6495;51.808;7.478;2023-05-10T02:24:38;1.05;;;0.95;;
12852;SDS011;6495;51.808;7.478;2023-05-10T02:27:08;1.00;;;0.90;;
12852;SDS011;6495;51.808;7.478;2023-05-10T02:29:39;1.40;;;0.95;;
12852;SDS011;6495;51.808;7.478;2023-05-10T02:32:08;0.85;;;0.85;;
12852;SDS011;6495;51.808;7.478;2023-05-10T02:34:41;0.98;;;0.88;;
12852;SDS011;6495;51.808;7.478;2023-05-10T02:37:12;1.00;;;0.90;;
12852;SDS011;6495;51.808;7.478;2023-05-10T02:39:44;1.40;;;1.08;;
12852;SDS011;6495;51.808;7.478;2023-05-10T02:42:16;0.93;;;0.93;;
12852;SDS011;6495;51.808;7.478;2023-05-10T02:44:47;1.25;;;1.15;;
12852;SDS011;6495;51.808;7.478;2023-05-10T02:47:19;1.02;;;0.93;;
12852;SDS011;6495;51.808;7.478;2023-05-10T02:49:49;1.02;;;0.90;;
12852;SDS011;6495;51.808;7.478;2023-05-10T02:52:19;1.10;;;1.00;;
12852;SDS011;6495;51.808;7.478;2023-05-10T02:54:54;1.13;;;1.02;;
12852;SDS011;6495;51.808;7.478;2023-05-10T02:57:28;1.08;;;0.90;;
12852;SDS011;6495;51.808;7.478;2023-05-10T03:00:01;1.58;;;1.20;;
12852;SDS011;6495;51.808;7.478;2023-05-10T03:02:31;1.25;;;1.02;;
12852;SDS011;6495;51.808;7.478;2023-05-10T03:05:01;2.42;;;1.08;;
12852;SDS011;6495;51.808;7.478;2023-05-10T03:07:29;2.28;;;1.23;;
12852;SDS011;6495;51.808;7.478;2023-05-10T03:09:58;1.65;;;1.40;;
12852;SDS011;6495;51.808;7.478;2023-05-10T03:12:29;1.42;;;1.15;;
12852;SDS011;6495;51.808;7.478;2023-05-10T03:15:21;1.73;;;1.48;;
12852;SDS011;6495;51.808;7.478;2023-05-10T03:18:01;1.92;;;1.38;;
12852;SDS011;6495;51.808;7.478;2023-05-10T03:20:37;2.25;;;1.83;;
12852;SDS011;6495;51.808;7.478;2023-05-10T03:23:11;1.70;;;1.60;;
12852;SDS011;6495;51.808;7.478;2023-05-10T03:25:49;2.63;;;1.58;;
12852;SDS011;6495;51.808;7.478;2023-05-10T03:28:19;2.03;;;1.63;;
12852;SDS011;6495;51.808;7.478;2023-05-10T03:30:49;1.70;;;1.60;;
12852;SDS011;6495;51.808;7.478;2023-05-10T03:33:19;1.95;;;1.75;;
12852;SDS011;6495;51.808;7.478;2023-05-10T03:35:49;3.00;;;1.65;;
12852;SDS011;6495;51.808;7.478;2023-05-10T03:38:18;2.85;;;1.88;;
12852;SDS011;6495;51.808;7.478;2023-05-10T03:40:46;3.90;;;1.85;;
12852;SDS011;6495;51.808;7.478;2023-05-10T03:43:14;2.25;;;1.80;;
12852;SDS011;6495;51.808;7.478;2023-05-10T03:45:42;2.60;;;1.60;;
12852;SDS011;6495;51.808;7.478;2023-05-10T03:48:10;1.95;;;1.50;;
12852;SDS011;6495;51.808;7.478;2023-05-10T03:50:40;2.45;;;2.00;;
12852;SDS011;6495;51.808;7.478;2023-05-10T03:53:10;1.98;;;1.77;;
12852;SDS011;6495;51.808;7.478;2023-05-10T03:55:38;2.75;;;1.98;;
12852;SDS011;6495;51.808;7.478;2023-05-10T03:58:06;3.05;;;1.88;;
12852;SDS011;6495;51.808;7.478;2023-05-10T04:00:38;2.22;;;2.03;;
12852;SDS011;6495;51.808;7.478;2023-05-10T04:03:10;3.20;;;2.30;;
12852;SDS011;6495;51.808;7.478;2023-05-10T04:05:39;2.95;;;2.10;;
12852;SDS011;6495;51.808;7.478;2023-05-10T04:08:07;2.58;;;2.20;;
12852;SDS011;6495;51.808;7.478;2023-05-10T04:10:36;3.78;;;2.22;;
12852;SDS011;6495;51.808;7.478;2023-05-10T04:13:04;2.22;;;2.00;;
12852;SDS011;6495;51.808;7.478;2023-05-10T04:15:33;2.97;;;2.08;;
12852;SDS011;6495;51.808;7.478;2023-05-10T04:18:01;3.28;;;2.45;;
12852;SDS011;6495;51.808;7.478;2023-05-10T04:20:33;5.60;;;2.20;;
12852;SDS011;6495;51.808;7.478;2023-05-10T04:23:01;4.53;;;2.17;;
12852;SDS011;6495;51.808;7.478;2023-05-10T04:25:30;2.88;;;1.80;;
12852;SDS011;6495;51.808;7.478;2023-05-10T04:28:08;2.47;;;2.00;;
12852;SDS011;6495;51.808;7.478;2023-05-10T04:30:36;4.50;;;2.50;;
12852;SDS011;6495;51.808;7.478;2023-05-10T04:33:05;4.45;;;2.40;;
12852;SDS011;6495;51.808;7.478;2023-05-10T04:35:34;3.72;;;2.72;;
12852;SDS011;6495;51.808;7.478;2023-05-10T04:38:02;5.07;;;2.83;;
12852;SDS011;6495;51.808;7.478;2023-05-10T04:40:30;5.88;;;3.30;;
12852;SDS011;6495;51.808;7.478;2023-05-10T04:42:59;4.85;;;3.08;;
12852;SDS011;6495;51.808;7.478;2023-05-10T04:45:28;5.55;;;3.58;;
12852;SDS011;6495;51.808;7.478;2023-05-10T04:47:57;7.95;;;3.13;;
12852;SDS011;6495;51.808;7.478;2023-05-10T04:50:25;3.75;;;2.92;;
12852;SDS011;6495;51.808;7.478;2023-05-10T04:52:54;8.38;;;3.70;;
12852;SDS011;6495;51.808;7.478;2023-05-10T04:55:36;7.57;;;3.88;;
12852;SDS011;6495;51.808;7.478;2023-05-10T04:58:10;6.80;;;4.07;;
12852;SDS011;6495;51.808;7.478;2023-05-10T05:00:39;8.35;;;4.65;;
12852;SDS011;6495;51.808;7.478;2023-05-10T05:03:08;9.63;;;5.28;;
12852;SDS011;6495;51.808;7.478;2023-05-10T05:05:37;7.75;;;4.72;;
12852;SDS011;6495;51.808;7.478;2023-05-10T05:08:05;8.02;;;5.25;;
12852;SDS011;6495;51.808;7.478;2023-05-10T05:10:33;9.75;;;6.03;;
12852;SDS011;6495;51.808;7.478;2023-05-10T05:13:01;15.77;;;7.63;;
12852;SDS011;6495;51.808;7.478;2023-05-10T05:15:30;15.05;;;8.02;;
12852;SDS011;6495;51.808;7.478;2023-05-10T05:18:00;15.77;;;8.52;;
12852;SDS011;6495;51.808;7.478;2023-05-10T05:20:31;14.00;;;7.32;;
12852;SDS011;6495;51.808;7.478;2023-05-10T05:23:00;13.60;;;7.53;;
12852;SDS011;6495;51.808;7.478;2023-05-10T05:25:28;15.57;;;8.55;;
12852;SDS011;6495;51.808;7.478;2023-05-10T05:27:57;15.07;;;8.35;;
12852;SDS011;6495;51.808;7.478;2023-05-10T05:30:25;16.98;;;8.80;;
12852;SDS011;6495;51.808;7.478;2023-05-10T05:32:53;18.52;;;9.13;;
12852;SDS011;6495;51.808;7.478;2023-05-10T05:35:24;15.65;;;8.82;;
12852;SDS011;6495;51.808;7.478;2023-05-10T05:37:52;14.18;;;8.23;;
12852;SDS011;6495;51.808;7.478;2023-05-10T05:40:21;15.52;;;8.45;;
12852;SDS011;6495;51.808;7.478;2023-05-10T05:42:50;15.73;;;8.85;;
12852;SDS011;6495;51.808;7.478;2023-05-10T05:45:18;17.38;;;8.50;;
12852;SDS011;6495;51.808;7.478;2023-05-10T05:47:47;20.25;;;9.35;;
12852;SDS011;6495;51.808;7.478;2023-05-10T05:50:16;17.92;;;8.65;;
12852;SDS011;6495;51.808;7.478;2023-05-10T05:52:53;18.67;;;9.32;;
12852;SDS011;6495;51.808;7.478;2023-05-10T05:55:23;17.35;;;10.05;;
12852;SDS011;6495;51.808;7.478;2023-05-10T05:57:52;20.35;;;9.80;;
12852;SDS011;6495;51.808;7.478;2023-05-10T06:00:23;17.60;;;9.85;;
12852;SDS011;6495;51.808;7.478;2023-05-10T06:02:52;18.10;;;9.48;;
12852;SDS011;6495;51.808;7.478;2023-05-10T06:05:20;19.40;;;9.88;;
12852;SDS011;6495;51.808;7.478;2023-05-10T06:07:49;23.02;;;11.50;;
12852;SDS011;6495;51.808;7.478;2023-05-10T06:10:23;20.65;;;11.18;;
12852;SDS011;6495;51.808;7.478;2023-05-10T06:12:54;22.13;;;10.60;;
12852;SDS011;6495;51.808;7.478;2023-05-10T06:15:23;19.17;;;10.85;;
12852;SDS011;6495;51.808;7.478;2023-05-10T06:17:51;24.23;;;11.80;;
12852;SDS011;6495;51.808;7.478;2023-05-10T06:20:19;21.08;;;12.50;;
12852;SDS011;6495;51.808;7.478;2023-05-10T06:22:48;25.95;;;12.27;;
12852;SDS011;6495;51.808;7.478;2023-05-10T06:25:18;22.23;;;12.07;;
12852;SDS011;6495;51.808;7.478;2023-05-10T06:27:48;26.15;;;12.90;;
12852;SDS011;6495;51.808;7.478;2023-05-10T06:30:19;23.02;;;11.80;;
12852;SDS011;6495;51.808;7.478;2023-05-10T06:32:49;27.80;;;12.68;;
12852;SDS011;6495;51.808;7.478;2023-05-10T06:35:21;29.48;;;13.27;;
12852;SDS011;6495;51.808;7.478;2023-05-10T06:37:49;23.55;;;13.02;;
12852;SDS011;6495;51.808;7.478;2023-05-10T06:40:18;27.60;;;13.10;;
12852;SDS011;6495;51.808;7.478;2023-05-10T06:42:47;21.90;;;12.63;;
12852;SDS011;6495;51.808;7.478;2023-05-10T06:45:17;27.50;;;13.10;;
12852;SDS011;6495;51.808;7.478;2023-05-10T06:47:45;27.38;;;12.43;;
12852;SDS011;6495;51.808;7.478;2023-05-10T06:50:14;25.45;;;13.35;;
12852;SDS011;6495;51.808;7.478;2023-05-10T06:52:42;25.70;;;12.70;;
12852;SDS011;6495;51.808;7.478;2023-05-10T06:55:10;23.63;;;11.90;;
12852;SDS011;6495;51.808;7.478;2023-05-10T06:57:39;20.98;;;12.13;;
12852;SDS011;6495;51.808;7.478;2023-05-10T07:00:09;23.35;;;12.80;;
12852;SDS011;6495;51.808;7.478;2023-05-10T07:02:38;25.05;;;12.10;;
12852;SDS011;6495;51.808;7.478;2023-05-10T07:05:06;25.15;;;12.35;;
12852;SDS011;6495;51.808;7.478;2023-05-10T07:07:35;27.50;;;13.13;;
12852;SDS011;6495;51.808;7.478;2023-05-10T07:10:04;25.40;;;12.50;;
12852;SDS011;6495;51.808;7.478;2023-05-10T07:12:34;23.85;;;12.63;;
12852;SDS011;6495;51.808;7.478;2023-05-10T07:15:02;26.13;;;12.23;;
12852;SDS011;6495;51.808;7.478;2023-05-10T07:17:33;24.08;;;13.02;;
12852;SDS011;6495;51.808;7.478;2023-05-10T07:20:02;26.70;;;12.75;;
12852;SDS011;6495;51.808;7.478;2023-05-10T07:22:31;24.95;;;13.27;;
12852;SDS011;6495;51.808;7.478;2023-05-10T07:24:59;28.50;;;13.32;;
12852;SDS011;6495;51.808;7.478;2023-05-10T07:27:28;28.30;;;13.07;;
12852;SDS011;6495;51.808;7.478;2023-05-10T07:29:56;26.15;;;13.20;;
12852;SDS011;6495;51.808;7.478;2023-05-10T07:32:25;28.23;;;13.40;;
12852;SDS011;6495;51.808;7.478;2023-05-10T07:34:55;27.98;;;14.05;;
12852;SDS011;6495;51.808;7.478;2023-05-10T07:37:23;27.95;;;13.05;;
12852;SDS011;6495;51.808;7.478;2023-05-10T07:39:51;31.55;;;14.55;;
12852;SDS011;6495;51.808;7.478;2023-05-10T07:42:19;25.25;;;12.98;;
12852;SDS011;6495;51.808;7.478;2023-05-10T07:44:48;25.27;;;12.38;;
12852;SDS011;6495;51.808;7.478;2023-05-10T07:47:16;24.30;;;12.90;;
12852;SDS011;6495;51.808;7.478;2023-05-10T07:49:45;21.75;;;12.60;;
12852;SDS011;6495;51.808;7.478;2023-05-10T07:52:14;21.75;;;12.13;;
12852;SDS011;6495;51.808;7.478;2023-05-10T07:54:43;25.48;;;12.98;;
12852;SDS011;6495;51.808;7.478;2023-05-10T07:57:12;24.48;;;11.77;;
12852;SDS011;6495;51.808;7.478;2023-05-10T07:59:43;22.77;;;11.65;;
12852;SDS011;6495;51.808;7.478;2023-05-10T08:02:13;21.92;;;11.25;;
12852;SDS011;6495;51.808;7.478;2023-05-10T08:04:43;19.25;;;11.13;;
12852;SDS011;6495;51.808;7.478;2023-05-10T08:07:12;19.95;;;9.93;;
12852;SDS011;6495;51.808;7.478;2023-05-10T08:09:41;17.73;;;10.38;;
12852;SDS011;6495;51.808;7.478;2023-05-10T08:12:10;20.08;;;10.38;;
12852;SDS011;6495;51.808;7.478;2023-05-10T08:14:39;18.63;;;10.52;;
12852;SDS011;6495;51.808;7.478;2023-05-10T08:17:08;20.65;;;10.25;;
12852;SDS011;6495;51.808;7.478;2023-05-10T08:19:37;17.70;;;9.27;;
12852;SDS011;6495;51.808;7.478;2023-05-10T08:22:05;17.02;;;9.57;;
12852;SDS011;6495;51.808;7.478;2023-05-10T08:24:33;17.80;;;9.65;;
12852;SDS011;6495;51.808;7.478;2023-05-10T08:27:06;17.50;;;8.68;;
12852;SDS011;6495;51.808;7.478;2023-05-10T08:29:34;19.02;;;10.20;;
12852;SDS011;6495;51.808;7.478;2023-05-10T08:32:15;17.33;;;10.25;;
12852;SDS011;6495;51.808;7.478;2023-05-10T08:34:44;19.70;;;10.50;;
12852;SDS011;6495;51.808;7.478;2023-05-10T08:37:12;18.02;;;9.68;;
12852;SDS011;6495;51.808;7.478;2023-05-10T08:39:41;21.58;;;10.52;;
12852;SDS011;6495;51.808;7.478;2023-05-10T08:42:11;20.70;;;9.73;;
12852;SDS011;6495;51.808;7.478;2023-05-10T08:44:44;18.00;;;9.77;;
12852;SDS011;6495;51.808;7.478;2023-05-10T08:47:16;24.08;;;10.55;;
12852;SDS011;6495;51.808;7.478;2023-05-10T08:49:54;17.42;;;10.38;;
12852;SDS011;6495;51.808;7.478;2023-05-10T08:52:25;19.08;;;11.05;;
12852;SDS011;6495;51.808;7.478;2023-05-10T08:54:57;21.65;;;10.82;;
12852;SDS011;6495;51.808;7.478;2023-05-10T08:57:27;21.50;;;11.25;;
12852;SDS011;6495;51.808;7.478;2023-05-10T08:59:56;19.88;;;10.68;;
12852;SDS011;6495;51.808;7.478;2023-05-10T09:02:25;20.40;;;9.13;;
12852;SDS011;6495;51.808;7.478;2023-05-10T09:04:54;17.63;;;9.85;;
12852;SDS011;6495;51.808;7.478;2023-05-10T09:07:22;17.02;;;9.95;;
12852;SDS011;6495;51.808;7.478;2023-05-10T09:09:51;20.13;;;9.75;;
12852;SDS011;6495;51.808;7.478;2023-05-10T09:12:21;17.27;;;9.90;;
12852;SDS011;6495;51.808;7.478;2023-05-10T09:14:51;17.27;;;9.95;;
12852;SDS011;6495;51.808;7.478;2023-05-10T09:17:23;22.17;;;10.98;;
12852;SDS011;6495;51.808;7.478;2023-05-10T09:19:56;18.75;;;10.73;;
12852;SDS011;6495;51.808;7.478;2023-05-10T09:22:26;19.02;;;10.40;;
12852;SDS011;6495;51.808;7.478;2023-05-10T09:25:05;16.83;;;10.57;;
12852;SDS011;6495;51.808;7.478;2023-05-10T09:27:34;15.15;;;8.85;;
12852;SDS011;6495;51.808;7.478;2023-05-10T09:30:05;15.70;;;9.40;;
12852;SDS011;6495;51.808;7.478;2023-05-10T09:32:37;16.08;;;9.90;;
12852;SDS011;6495;51.808;7.478;2023-05-10T09:35:07;15.18;;;9.70;;
12852;SDS011;6495;51.808;7.478;2023-05-10T09:37:38;14.90;;;9.23;;
12852;SDS011;6495;51.808;7.478;2023-05-10T09:40:11;17.75;;;9.13;;
12852;SDS011;6495;51.808;7.478;2023-05-10T09:42:43;17.13;;;8.95;;
12852;SDS011;6495;51.808;7.478;2023-05-10T09:45:22;13.90;;;8.02;;
12852;SDS011;6495;51.808;7.478;2023-05-10T09:47:53;15.13;;;8.95;;
12852;SDS011;6495;51.808;7.478;2023-05-10T09:50:22;13.27;;;7.28;;
12852;SDS011;6495;51.808;7.478;2023-05-10T09:52:51;13.93;;;8.15;;
12852;SDS011;6495;51.808;7.478;2023-05-10T09:55:24;13.13;;;8.52;;
12852;SDS011;6495;51.808;7.478;2023-05-10T09:58:06;17.50;;;9.70;;
12852;SDS011;6495;51.808;7.478;2023-05-10T10:00:39;15.73;;;9.38;;
12852;SDS011;6495;51.808;7.478;2023-05-10T10:03:12;14.75;;;9.70;;
12852;SDS011;6495;51.808;7.478;2023-05-10T10:05:42;18.30;;;10.38;;
12852;SDS011;6495;51.808;7.478;2023-05-10T10:08:12;21.38;;;11.38;;
12852;SDS011;6495;51.808;7.478;2023-05-10T10:10:42;20.60;;;11.55;;
12852;SDS011;6495;51.808;7.478;2023-05-10T10:13:12;17.17;;;10.82;;
12852;SDS011;6495;51.808;7.478;2023-05-10T10:15:43;17.08;;;10.70;;
12852;SDS011;6495;51.808;7.478;2023-05-10T10:18:12;17.83;;;10.45;;
12852;SDS011;6495;51.808;7.478;2023-05-10T10:20:42;20.92;;;11.15;;
12852;SDS011;6495;51.808;7.478;2023-05-10T10:23:10;18.65;;;11.07;;
12852;SDS011;6495;51.808;7.478;2023-05-10T10:25:41;19.23;;;11.48;;
12852;SDS011;6495;51.808;7.478;2023-05-10T10:28:16;15.85;;;9.85;;
12852;SDS011;6495;51.808;7.478;2023-05-10T10:30:55;13.65;;;8.93;;
12852;SDS011;6495;51.808;7.478;2023-05-10T10:33:39;17.42;;;10.50;;
12852;SDS011;6495;51.808;7.478;2023-05-10T10:36:24;18.35;;;10.20;;
12852;SDS011;6495;51.808;7.478;2023-05-10T10:39:00;17.02;;;9.57;;
12852;SDS011;6495;51.808;7.478;2023-05-10T10:41:31;16.00;;;9.35;;
12852;SDS011;6495;51.808;7.478;2023-05-10T10:47:07;14.43;;;8.43;;
12852;SDS011;6495;51.808;7.478;2023-05-10T10:50:03;13.98;;;7.80;;
12852;SDS011;6495;51.808;7.478;2023-05-10T10:52:34;14.13;;;8.77;;
12852;SDS011;6495;51.808;7.478;2023-05-10T10:55:05;14.57;;;8.32;;
12852;SDS011;6495;51.808;7.478;2023-05-10T10:57:45;14.48;;;8.73;;
12852;SDS011;6495;51.808;7.478;2023-05-10T11:00:23;14.63;;;8.90;;
12852;SDS011;6495;51.808;7.478;2023-05-10T11:02:57;15.45;;;8.40;;
12852;SDS011;6495;51.808;7.478;2023-05-10T11:08:16;16.00;;;8.63;;
12852;SDS011;6495;51.808;7.478;2023-05-10T11:10:51;14.63;;;8.27;;
12852;SDS011;6495;51.808;7.478;2023-05-10T11:13:31;15.65;;;8.30;;
12852;SDS011;6495;51.808;7.478;2023-05-10T11:18:56;15.10;;;9.05;;
12852;SDS011;6495;51.808;7.478;2023-05-10T11:21:29;12.93;;;8.10;;
12852;SDS011;6495;51.808;7.478;2023-05-10T11:23:59;12.63;;;7.03;;
12852;SDS011;6495;51.808;7.478;2023-05-10T11:26:33;20.25;;;8.82;;
12852;SDS011;6495;51.808;7.478;2023-05-10T11:29:03;16.58;;;8.32;;
12852;SDS011;6495;51.808;7.478;2023-05-10T11:31:31;16.63;;;9.38;;
12852;SDS011;6495;51.808;7.478;2023-05-10T11:34:01;18.40;;;9.10;;
12852;SDS011;6495;51.808;7.478;2023-05-10T11:36:32;18.10;;;9.13;;
12852;SDS011;6495;51.808;7.478;2023-05-10T11:39:03;16.40;;;8.93;;
12852;SDS011;6495;51.808;7.478;2023-05-10T11:41:32;17.48;;;9.63;;
12852;SDS011;6495;51.808;7.478;2023-05-10T11:44:01;16.33;;;8.93;;
12852;SDS011;6495;51.808;7.478;2023-05-10T11:46:29;16.98;;;10.07;;
12852;SDS011;6495;51.808;7.478;2023-05-10T11:49:00;14.40;;;9.23;;
12852;SDS011;6495;51.808;7.478;2023-05-10T11:51:32;15.82;;;8.02;;
12852;SDS011;6495;51.808;7.478;2023-05-10T11:54:05;15.38;;;9.23;;
12852;SDS011;6495;51.808;7.478;2023-05-10T11:56:35;15.15;;;8.75;;
12852;SDS011;6495;51.808;7.478;2023-05-10T11:59:04;18.58;;;9.38;;
12852;SDS011;6495;51.808;7.478;2023-05-10T12:01:37;14.95;;;8.65;;
12852;SDS011;6495;51.808;7.478;2023-05-10T12:04:07;16.95;;;9.38;;
12852;SDS011;6495;51.808;7.478;2023-05-10T12:06:37;14.82;;;8.52;;
12852;SDS011;6495;51.808;7.478;2023-05-10T12:09:08;12.98;;;7.72;;
12852;SDS011;6495;51.808;7.478;2023-05-10T12:11:37;14.98;;;8.07;;
12852;SDS011;6495;51.808;7.478;2023-05-10T12:14:09;13.00;;;7.65;;
12852;SDS011;6495;51.808;7.478;2023-05-10T12:16:38;12.73;;;6.90;;
12852;SDS011;6495;51.808;7.478;2023-05-10T12:19:08;16.42;;;8.35;;
12852;SDS011;6495;51.808;7.478;2023-05-10T12:21:37;11.57;;;7.80;;
12852;SDS011;6495;51.808;7.478;2023-05-10T12:24:07;13.90;;;7.43;;
12852;SDS011;6495;51.808;7.478;2023-05-10T12:26:36;11.30;;;7.45;;
12852;SDS011;6495;51.808;7.478;2023-05-10T12:29:11;10.63;;;7.25;;
12852;SDS011;6495;51.808;7.478;2023-05-10T12:31:51;12.50;;;7.13;;
12852;SDS011;6495;51.808;7.478;2023-05-10T12:34:24;11.85;;;7.00;;
12852;SDS011;6495;51.808;7.478;2023-05-10T12:36:55;12.88;;;6.85;;
12852;SDS011;6495;51.808;7.478;2023-05-10T12:39:24;10.98;;;6.80;;
12852;SDS011;6495;51.808;7.478;2023-05-10T12:41:52;13.27;;;7.97;;
12852;SDS011;6495;51.808;7.478;2023-05-10T12:44:20;13.13;;;7.38;;
12852;SDS011;6495;51.808;7.478;2023-05-10T12:46:49;11.18;;;6.65;;
12852;SDS011;6495;51.808;7.478;2023-05-10T12:49:18;12.73;;;7.30;;
12852;SDS011;6495;51.808;7.478;2023-05-10T12:51:48;9.57;;;6.28;;
12852;SDS011;6495;51.808;7.478;2023-05-10T12:54:16;9.70;;;6.38;;
12852;SDS011;6495;51.808;7.478;2023-05-10T12:56:44;10.20;;;6.15;;
12852;SDS011;6495;51.808;7.478;2023-05-10T12:59:12;9.90;;;6.55;;
12852;SDS011;6495;51.808;7.478;2023-05-10T13:01:41;9.02;;;5.07;;
12852;SDS011;6495;51.808;7.478;2023-05-10T13:04:09;9.77;;;5.82;;
12852;SDS011;6495;51.808;7.478;2023-05-10T13:06:37;7.78;;;5.03;;
12852;SDS011;6495;51.808;7.478;2023-05-10T13:09:07;9.82;;;5.85;;
12852;SDS011;6495;51.808;7.478;2023-05-10T13:11:35;8.13;;;4.85;;
12852;SDS011;6495;51.808;7.478;2023-05-10T13:14:03;12.48;;;6.82;;
12852;SDS011;6495;51.808;7.478;2023-05-10T13:16:32;9.65;;;5.30;;
12852;SDS011;6495;51.808;7.478;2023-05-10T13:19:01;8.18;;;5.20;;
12852;SDS011;6495;51.808;7.478;2023-05-10T13:21:29;10.05;;;6.20;;
12852;SDS011;6495;51.808;7.478;2023-05-10T13:23:57;9.00;;;5.60;;
12852;SDS011;6495;51.808;7.478;2023-05-10T13:26:31;8.60;;;5.13;;
12852;SDS011;6495;51.808;7.478;2023-05-10T13:28:59;7.78;;;5.63;;
12852;SDS011;6495;51.808;7.478;2023-05-10T13:31:27;8.60;;;5.93;;
12852;SDS011;6495;51.808;7.478;2023-05-10T13:33:56;8.73;;;5.93;;
12852;SDS011;6495;51.808;7.478;2023-05-10T13:36:24;10.10;;;6.30;;
12852;SDS011;6495;51.808;7.478;2023-05-10T13:38:53;9.85;;;6.07;;
12852;SDS011;6495;51.808;7.478;2023-05-10T13:41:21;9.10;;;5.82;;
12852;SDS011;6495;51.808;7.478;2023-05-10T13:43:51;9.43;;;5.63;;
12852;SDS011;6495;51.808;7.478;2023-05-10T13:46:19;12.05;;;6.07;;
12852;SDS011;6495;51.808;7.478;2023-05-10T13:48:48;11.00;;;6.60;;
12852;SDS011;6495;51.808;7.478;2023-05-10T13:51:17;9.23;;;5.72;;
12852;SDS011;6495;51.808;7.478;2023-05-10T13:53:45;13.18;;;6.97;;
12852;SDS011;6495;51.808;7.478;2023-05-10T13:56:14;8.95;;;5.75;;
12852;SDS011;6495;51.808;7.478;2023-05-10T13:58:42;11.27;;;6.47;;
12852;SDS011;6495;51.808;7.478;2023-05-10T14:01:12;10.20;;;5.85;;
12852;SDS011;6495;51.808;7.478;2023-05-10T14:03:40;10.93;;;6.45;;
12852;SDS011;6495;51.808;7.478;2023-05-10T14:06:09;9.00;;;6.47;;
12852;SDS011;6495;51.808;7.478;2023-05-10T14:08:37;9.20;;;5.85;;
12852;SDS011;6495;51.808;7.478;2023-05-10T14:11:06;10.32;;;6.10;;
12852;SDS011;6495;51.808;7.478;2023-05-10T14:13:34;9.57;;;6.35;;
12852;SDS011;6495;51.808;7.478;2023-05-10T14:16:03;7.18;;;4.78;;
12852;SDS011;6495;51.808;7.478;2023-05-10T14:18:33;7.57;;;5.57;;
12852;SDS011;6495;51.808;7.478;2023-05-10T14:21:02;7.70;;;5.45;;
12852;SDS011;6495;51.808;7.478;2023-05-10T14:23:31;9.70;;;5.70;;
12852;SDS011;6495;51.808;7.478;2023-05-10T14:25:59;10.50;;;6.15;;
12852;SDS011;6495;51.808;7.478;2023-05-10T14:28:29;9.25;;;5.75;;
12852;SDS011;6495;51.808;7.478;2023-05-10T14:30:58;9.95;;;5.65;;
12852;SDS011;6495;51.808;7.478;2023-05-10T14:33:26;8.65;;;6.18;;
12852;SDS011;6495;51.808;7.478;2023-05-10T14:35:56;7.32;;;5.25;;
12852;SDS011;6495;51.808;7.478;2023-05-10T14:38:26;8.98;;;6.25;;
12852;SDS011;6495;51.808;7.478;2023-05-10T14:40:54;9.73;;;7.07;;
12852;SDS011;6495;51.808;7.478;2023-05-10T14:43:23;11.52;;;7.88;;
12852;SDS011;6495;51.808;7.478;2023-05-10T14:45:53;16.65;;;8.60;;
12852;SDS011;6495;51.808;7.478;2023-05-10T14:48:22;14.40;;;8.07;;
12852;SDS011;6495;51.808;7.478;2023-05-10T14:50:50;13.80;;;8.13;;
12852;SDS011;6495;51.808;7.478;2023-05-10T14:53:20;12.70;;;7.90;;
12852;SDS011;6495;51.808;7.478;2023-05-10T14:55:50;13.05;;;7.78;;
12852;SDS011;6495;51.808;7.478;2023-05-10T14:58:19;15.68;;;7.95;;
12852;SDS011;6495;51.808;7.478;2023-05-10T15:00:47;11.23;;;7.03;;
12852;SDS011;6495;51.808;7.478;2023-05-10T15:03:15;11.60;;;6.60;;
12852;SDS011;6495;51.808;7.478;2023-05-10T15:05:54;10.57;;;6.60;;
12852;SDS011;6495;51.808;7.478;2023-05-10T15:08:25;9.20;;;6.05;;
12852;SDS011;6495;51.808;7.478;2023-05-10T15:10:53;9.77;;;6.22;;
12852;SDS011;6495;51.808;7.478;2023-05-10T15:13:22;9.32;;;6.95;;
12852;SDS011;6495;51.808;7.478;2023-05-10T15:15:50;11.57;;;6.57;;
12852;SDS011;6495;51.808;7.478;2023-05-10T15:18:19;8.25;;;5.72;;
12852;SDS011;6495;51.808;7.478;2023-05-10T15:20:49;8.27;;;5.88;;
12852;SDS011;6495;51.808;7.478;2023-05-10T15:23:18;8.32;;;5.53;;